sensor_id;sensor_type;location;lat;lon;timestamp;temperature;humidity
9497;DHT22;4786;51.270;4.456;2022-09-24T00:01:36;14.90;99.90
9497;DHT22;4786;51.270;4.456;2022-09-24T00:04:08;14.90;99.90
9497;DHT22;4786;51.270;4.456;2022-09-24T00:06:44;14.80;99.90
9497;DHT22;4786;51.270;4.456;2022-09-24T00:09:11;14.80;99.90
9497;DHT22;4786;51.270;4.456;2022-09-24T00:11:37;14.90;99.90
9497;DHT22;4786;51.270;4.456;2022-09-24T00:14:04;14.90;99.90
9497;DHT22;4786;51.270;4.456;2022-09-24T00:16:32;14.90;99.90
9497;DHT22;4786;51.270;4.456;2022-09-24T00:18:59;14.90;99.90
9497;DHT22;4786;51.270;4.456;2022-09-24T00:21:28;14.80;99.90
9497;DHT22;4786;51.270;4.456;2022-09-24T00:24:00;14.80;99.90
9497;DHT22;4786;51.270;4.456;2022-09-24T00:26:26;14.90;99.90
9497;DHT22;4786;51.270;4.456;2022-09-24T00:29:14;14.80;99.90
9497;DHT22;4786;51.270;4.456;2022-09-24T00:31:40;14.80;99.90
9497;DHT22;4786;51.270;4.456;2022-09-24T00:34:06;14.80;99.90
9497;DHT22;4786;51.270;4.456;2022-09-24T00:36:32;14.80;99.90
9497;DHT22;4786;51.270;4.456;2022-09-24T00:38:59;14.80;99.90
9497;DHT22;4786;51.270;4.456;2022-09-24T00:41:28;14.80;99.90
9497;DHT22;4786;51.270;4.456;2022-09-24T00:43:54;14.80;99.90
9497;DHT22;4786;51.270;4.456;2022-09-24T00:46:39;14.80;99.90
9497;DHT22;4786;51.270;4.456;2022-09-24T00:49:15;14.80;99.90
9497;DHT22;4786;51.270;4.456;2022-09-24T00:51:43;14.80;99.90
9497;DHT22;4786;51.270;4.456;2022-09-24T00:54:17;14.80;99.90
9497;DHT22;4786;51.270;4.456;2022-09-24T00:56:45;14.80;99.90
9497;DHT22;4786;51.270;4.456;2022-09-24T00:59:15;14.80;99.90
9497;DHT22;4786;51.270;4.456;2022-09-24T01:01:43;14.80;99.90
9497;DHT22;4786;51.270;4.456;2022-09-24T01:04:10;14.80;99.90
9497;DHT22;4786;51.270;4.456;2022-09-24T01:06:36;14.80;99.90
9497;DHT22;4786;51.270;4.456;2022-09-24T01:09:02;14.80;99.90
9497;DHT22;4786;51.270;4.456;2022-09-24T01:17:18;14.70;99.90
9497;DHT22;4786;51.270;4.456;2022-09-24T01:22:50;14.80;99.90
9497;DHT22;4786;51.270;4.456;2022-09-24T01:25:52;14.80;99.90
9497;DHT22;4786;51.270;4.456;2022-09-24T01:31:29;14.80;99.90
9497;DHT22;4786;51.270;4.456;2022-09-24T01:34:01;14.80;99.90
9497;DHT22;4786;51.270;4.456;2022-09-24T01:36:32;14.80;99.90
9497;DHT22;4786;51.270;4.456;2022-09-24T01:39:00;14.70;99.90
9497;DHT22;4786;51.270;4.456;2022-09-24T01:41:26;14.70;99.90
9497;DHT22;4786;51.270;4.456;2022-09-24T01:43:53;14.70;99.90
9497;DHT22;4786;51.270;4.456;2022-09-24T01:46:19;14.70;99.90
9497;DHT22;4786;51.270;4.456;2022-09-24T01:48:46;14.70;99.90
9497;DHT22;4786;51.270;4.456;2022-09-24T01:51:13;14.60;99.90
9497;DHT22;4786;51.270;4.456;2022-09-24T01:54:04;14.60;99.90
9497;DHT22;4786;51.270;4.456;2022-09-24T01:56:39;14.70;99.90
9497;DHT22;4786;51.270;4.456;2022-09-24T02:04:29;14.70;99.90
9497;DHT22;4786;51.270;4.456;2022-09-24T02:07:00;14.70;99.90
9497;DHT22;4786;51.270;4.456;2022-09-24T02:09:39;14.70;99.90
9497;DHT22;4786;51.270;4.456;2022-09-24T02:12:20;14.70;99.90
9497;DHT22;4786;51.270;4.456;2022-09-24T02:15:01;14.70;99.90
9497;DHT22;4786;51.270;4.456;2022-09-24T02:17:31;14.70;99.90
9497;DHT22;4786;51.270;4.456;2022-09-24T02:20:00;14.60;99.90
9497;DHT22;4786;51.270;4.456;2022-09-24T02:22:28;14.60;99.90
9497;DHT22;4786;51.270;4.456;2022-09-24T02:24:56;14.60;99.90
9497;DHT22;4786;51.270;4.456;2022-09-24T02:27:24;14.50;99.90
9497;DHT22;4786;51.270;4.456;2022-09-24T02:29:56;14.50;99.90
9497;DHT22;4786;51.270;4.456;2022-09-24T02:32:27;14.50;99.90
9497;DHT22;4786;51.270;4.456;2022-09-24T02:35:00;14.50;99.90
9497;DHT22;4786;51.270;4.456;2022-09-24T02:37:28;14.40;99.90
9497;DHT22;4786;51.270;4.456;2022-09-24T02:39:54;14.40;99.90
9497;DHT22;4786;51.270;4.456;2022-09-24T02:42:21;14.50;99.90
9497;DHT22;4786;51.270;4.456;2022-09-24T02:44:47;14.40;99.90
9497;DHT22;4786;51.270;4.456;2022-09-24T02:47:13;14.40;99.90
9497;DHT22;4786;51.270;4.456;2022-09-24T02:49:39;14.40;99.90
9497;DHT22;4786;51.270;4.456;2022-09-24T02:52:05;14.40;99.90
9497;DHT22;4786;51.270;4.456;2022-09-24T02:54:31;14.40;99.90
9497;DHT22;4786;51.270;4.456;2022-09-24T02:56:57;14.40;99.90
9497;DHT22;4786;51.270;4.456;2022-09-24T02:59:22;14.40;99.90
9497;DHT22;4786;51.270;4.456;2022-09-24T03:01:48;14.40;99.90
9497;DHT22;4786;51.270;4.456;2022-09-24T03:04:15;14.40;99.90
9497;DHT22;4786;51.270;4.456;2022-09-24T03:06:42;14.40;99.90
9497;DHT22;4786;51.270;4.456;2022-09-24T03:09:10;14.40;99.90
9497;DHT22;4786;51.270;4.456;2022-09-24T03:11:37;14.40;99.90
9497;DHT22;4786;51.270;4.456;2022-09-24T03:14:03;14.40;99.90
9497;DHT22;4786;51.270;4.456;2022-09-24T03:16:28;14.30;99.90
9497;DHT22;4786;51.270;4.456;2022-09-24T03:18:54;14.30;99.90
9497;DHT22;4786;51.270;4.456;2022-09-24T03:21:21;14.30;99.90
9497;DHT22;4786;51.270;4.456;2022-09-24T03:23:47;14.30;99.90
9497;DHT22;4786;51.270;4.456;2022-09-24T03:26:14;14.30;99.90
9497;DHT22;4786;51.270;4.456;2022-09-24T03:28:39;14.20;99.90
9497;DHT22;4786;51.270;4.456;2022-09-24T03:31:05;14.20;99.90
9497;DHT22;4786;51.270;4.456;2022-09-24T03:33:40;14.20;99.90
9497;DHT22;4786;51.270;4.456;2022-09-24T03:36:27;14.20;99.90
9497;DHT22;4786;51.270;4.456;2022-09-24T03:38:54;14.10;99.90
9497;DHT22;4786;51.270;4.456;2022-09-24T03:41:21;14.10;99.90
9497;DHT22;4786;51.270;4.456;2022-09-24T03:43:46;14.10;99.90
9497;DHT22;4786;51.270;4.456;2022-09-24T03:46:13;14.10;99.90
9497;DHT22;4786;51.270;4.456;2022-09-24T03:48:40;14.10;99.90
9497;DHT22;4786;51.270;4.456;2022-09-24T03:51:09;14.10;99.90
9497;DHT22;4786;51.270;4.456;2022-09-24T03:53:36;14.20;99.90
9497;DHT22;4786;51.270;4.456;2022-09-24T03:56:02;14.20;99.90
9497;DHT22;4786;51.270;4.456;2022-09-24T03:58:31;14.20;99.90
9497;DHT22;4786;51.270;4.456;2022-09-24T04:00:57;14.10;99.90
9497;DHT22;4786;51.270;4.456;2022-09-24T04:03:24;14.20;99.90
9497;DHT22;4786;51.270;4.456;2022-09-24T04:05:50;14.20;99.90
9497;DHT22;4786;51.270;4.456;2022-09-24T04:08:19;14.10;99.90
9497;DHT22;4786;51.270;4.456;2022-09-24T04:10:46;14.20;99.90
9497;DHT22;4786;51.270;4.456;2022-09-24T04:13:12;14.20;99.90
9497;DHT22;4786;51.270;4.456;2022-09-24T04:15:38;14.30;99.90
9497;DHT22;4786;51.270;4.456;2022-09-24T04:18:04;14.20;99.90
9497;DHT22;4786;51.270;4.456;2022-09-24T04:20:30;14.20;99.90
9497;DHT22;4786;51.270;4.456;2022-09-24T04:22:57;14.20;99.90
9497;DHT22;4786;51.270;4.456;2022-09-24T04:25:25;14.20;99.90
9497;DHT22;4786;51.270;4.456;2022-09-24T04:27:56;14.20;99.90
9497;DHT22;4786;51.270;4.456;2022-09-24T04:30:23;14.30;99.90
9497;DHT22;4786;51.270;4.456;2022-09-24T04:32:50;14.30;99.90
9497;DHT22;4786;51.270;4.456;2022-09-24T04:35:17;14.20;99.90
9497;DHT22;4786;51.270;4.456;2022-09-24T04:37:43;14.20;99.90
9497;DHT22;4786;51.270;4.456;2022-09-24T04:40:09;14.30;99.90
9497;DHT22;4786;51.270;4.456;2022-09-24T04:42:40;14.30;99.90
9497;DHT22;4786;51.270;4.456;2022-09-24T04:45:07;14.20;99.90
9497;DHT22;4786;51.270;4.456;2022-09-24T04:47:35;14.20;99.90
9497;DHT22;4786;51.270;4.456;2022-09-24T04:50:00;14.20;99.90
9497;DHT22;4786;51.270;4.456;2022-09-24T04:52:30;14.20;99.90
9497;DHT22;4786;51.270;4.456;2022-09-24T04:54:58;14.30;99.90
9497;DHT22;4786;51.270;4.456;2022-09-24T04:57:25;14.30;99.90
9497;DHT22;4786;51.270;4.456;2022-09-24T04:59:52;14.30;99.90
9497;DHT22;4786;51.270;4.456;2022-09-24T05:02:18;14.30;99.90
9497;DHT22;4786;51.270;4.456;2022-09-24T05:04:44;14.30;99.90
9497;DHT22;4786;51.270;4.456;2022-09-24T05:07:10;14.30;99.90
9497;DHT22;4786;51.270;4.456;2022-09-24T05:09:36;14.20;99.90
9497;DHT22;4786;51.270;4.456;2022-09-24T05:12:03;14.20;99.90
9497;DHT22;4786;51.270;4.456;2022-09-24T05:14:28;14.30;99.90
9497;DHT22;4786;51.270;4.456;2022-09-24T05:16:55;14.20;99.90
9497;DHT22;4786;51.270;4.456;2022-09-24T05:19:21;14.30;99.90
9497;DHT22;4786;51.270;4.456;2022-09-24T05:21:47;14.30;99.90
9497;DHT22;4786;51.270;4.456;2022-09-24T05:24:13;14.30;99.90
9497;DHT22;4786;51.270;4.456;2022-09-24T05:26:38;14.30;99.90
9497;DHT22;4786;51.270;4.456;2022-09-24T05:29:22;14.30;99.90
9497;DHT22;4786;51.270;4.456;2022-09-24T05:31:48;14.30;99.90
9497;DHT22;4786;51.270;4.456;2022-09-24T05:34:15;14.30;99.90
9497;DHT22;4786;51.270;4.456;2022-09-24T05:36:41;14.20;99.90
9497;DHT22;4786;51.270;4.456;2022-09-24T05:39:10;14.20;99.90
9497;DHT22;4786;51.270;4.456;2022-09-24T05:41:38;14.20;99.90
9497;DHT22;4786;51.270;4.456;2022-09-24T05:44:04;14.20;99.90
9497;DHT22;4786;51.270;4.456;2022-09-24T05:46:31;14.20;99.90
9497;DHT22;4786;51.270;4.456;2022-09-24T05:48:58;14.20;99.90
9497;DHT22;4786;51.270;4.456;2022-09-24T05:51:25;14.20;99.90
9497;DHT22;4786;51.270;4.456;2022-09-24T05:53:50;14.20;99.90
9497;DHT22;4786;51.270;4.456;2022-09-24T05:56:16;14.20;99.90
9497;DHT22;4786;51.270;4.456;2022-09-24T05:58:42;14.20;99.90
9497;DHT22;4786;51.270;4.456;2022-09-24T06:01:08;14.20;99.90
9497;DHT22;4786;51.270;4.456;2022-09-24T06:03:34;14.20;99.90
9497;DHT22;4786;51.270;4.456;2022-09-24T06:06:00;14.30;99.90
9497;DHT22;4786;51.270;4.456;2022-09-24T06:08:30;14.30;99.90
9497;DHT22;4786;51.270;4.456;2022-09-24T06:11:00;14.30;99.90
9497;DHT22;4786;51.270;4.456;2022-09-24T06:13:27;14.30;99.90
9497;DHT22;4786;51.270;4.456;2022-09-24T06:15:59;14.30;99.90
9497;DHT22;4786;51.270;4.456;2022-09-24T06:18:25;14.30;99.90
9497;DHT22;4786;51.270;4.456;2022-09-24T06:20:52;14.30;99.90
9497;DHT22;4786;51.270;4.456;2022-09-24T06:23:17;14.30;99.90
9497;DHT22;4786;51.270;4.456;2022-09-24T06:25:48;14.30;99.90
9497;DHT22;4786;51.270;4.456;2022-09-24T06:28:14;14.40;99.90
9497;DHT22;4786;51.270;4.456;2022-09-24T06:30:41;14.40;99.90
9497;DHT22;4786;51.270;4.456;2022-09-24T06:33:09;14.40;99.90
9497;DHT22;4786;51.270;4.456;2022-09-24T06:35:37;14.40;99.90
9497;DHT22;4786;51.270;4.456;2022-09-24T06:38:04;14.30;99.90
9497;DHT22;4786;51.270;4.456;2022-09-24T06:40:30;14.40;99.90
9497;DHT22;4786;51.270;4.456;2022-09-24T06:42:56;14.40;99.90
9497;DHT22;4786;51.270;4.456;2022-09-24T06:45:23;14.40;99.90
9497;DHT22;4786;51.270;4.456;2022-09-24T06:47:53;14.40;99.90
9497;DHT22;4786;51.270;4.456;2022-09-24T06:50:21;14.40;99.90
9497;DHT22;4786;51.270;4.456;2022-09-24T06:52:47;14.40;99.90
9497;DHT22;4786;51.270;4.456;2022-09-24T06:55:14;14.50;99.90
9497;DHT22;4786;51.270;4.456;2022-09-24T06:57:40;14.50;99.90
9497;DHT22;4786;51.270;4.456;2022-09-24T07:00:06;14.50;99.90
9497;DHT22;4786;51.270;4.456;2022-09-24T07:02:35;14.50;99.90
9497;DHT22;4786;51.270;4.456;2022-09-24T07:05:00;14.60;99.90
9497;DHT22;4786;51.270;4.456;2022-09-24T07:07:26;14.60;99.90
9497;DHT22;4786;51.270;4.456;2022-09-24T07:10:02;14.60;99.90
9497;DHT22;4786;51.270;4.456;2022-09-24T07:12:29;14.60;99.90
9497;DHT22;4786;51.270;4.456;2022-09-24T07:14:55;14.60;99.90
9497;DHT22;4786;51.270;4.456;2022-09-24T07:17:23;14.60;99.90
9497;DHT22;4786;51.270;4.456;2022-09-24T07:19:48;14.50;99.90
9497;DHT22;4786;51.270;4.456;2022-09-24T07:22:14;14.50;99.90
9497;DHT22;4786;51.270;4.456;2022-09-24T07:24:40;14.50;99.90
9497;DHT22;4786;51.270;4.456;2022-09-24T07:27:07;14.50;99.90
9497;DHT22;4786;51.270;4.456;2022-09-24T07:29:33;14.50;99.90
9497;DHT22;4786;51.270;4.456;2022-09-24T07:31:58;14.60;99.90
9497;DHT22;4786;51.270;4.456;2022-09-24T07:34:25;14.50;99.90
9497;DHT22;4786;51.270;4.456;2022-09-24T07:36:50;14.50;99.90
9497;DHT22;4786;51.270;4.456;2022-09-24T07:39:16;14.60;99.90
9497;DHT22;4786;51.270;4.456;2022-09-24T07:41:42;14.60;99.90
9497;DHT22;4786;51.270;4.456;2022-09-24T07:44:08;14.60;99.90
9497;DHT22;4786;51.270;4.456;2022-09-24T07:46:34;14.60;99.90
9497;DHT22;4786;51.270;4.456;2022-09-24T07:49:00;14.60;99.90
9497;DHT22;4786;51.270;4.456;2022-09-24T07:51:27;14.60;99.90
9497;DHT22;4786;51.270;4.456;2022-09-24T07:53:54;14.70;99.90
9497;DHT22;4786;51.270;4.456;2022-09-24T07:56:22;14.60;99.90
9497;DHT22;4786;51.270;4.456;2022-09-24T07:58:51;14.60;99.90
9497;DHT22;4786;51.270;4.456;2022-09-24T08:01:18;14.60;99.90
9497;DHT22;4786;51.270;4.456;2022-09-24T08:03:44;14.50;99.90
9497;DHT22;4786;51.270;4.456;2022-09-24T08:06:12;14.60;99.90
9497;DHT22;4786;51.270;4.456;2022-09-24T08:08:38;14.60;99.90
9497;DHT22;4786;51.270;4.456;2022-09-24T08:11:05;14.50;99.90
9497;DHT22;4786;51.270;4.456;2022-09-24T08:13:31;14.60;99.90
9497;DHT22;4786;51.270;4.456;2022-09-24T08:16:00;14.60;99.90
9497;DHT22;4786;51.270;4.456;2022-09-24T08:18:27;14.60;99.90
9497;DHT22;4786;51.270;4.456;2022-09-24T08:20:53;14.60;99.90
9497;DHT22;4786;51.270;4.456;2022-09-24T08:23:19;14.60;99.90
9497;DHT22;4786;51.270;4.456;2022-09-24T08:25:46;14.60;99.90
9497;DHT22;4786;51.270;4.456;2022-09-24T08:28:12;14.70;99.90
9497;DHT22;4786;51.270;4.456;2022-09-24T08:30:42;14.70;99.90
9497;DHT22;4786;51.270;4.456;2022-09-24T08:33:09;14.70;99.90
9497;DHT22;4786;51.270;4.456;2022-09-24T08:35:35;14.60;99.90
9497;DHT22;4786;51.270;4.456;2022-09-24T08:38:04;14.70;99.90
9497;DHT22;4786;51.270;4.456;2022-09-24T08:40:35;14.70;99.90
9497;DHT22;4786;51.270;4.456;2022-09-24T08:45:45;14.80;99.90
9497;DHT22;4786;51.270;4.456;2022-09-24T08:48:35;14.80;99.90
9497;DHT22;4786;51.270;4.456;2022-09-24T08:51:06;14.80;99.90
9497;DHT22;4786;51.270;4.456;2022-09-24T08:56:26;14.80;99.90
9497;DHT22;4786;51.270;4.456;2022-09-24T08:59:00;14.80;99.90
9497;DHT22;4786;51.270;4.456;2022-09-24T09:01:38;14.80;99.90
9497;DHT22;4786;51.270;4.456;2022-09-24T09:07:19;14.90;99.90
9497;DHT22;4786;51.270;4.456;2022-09-24T09:09:53;14.90;99.90
9497;DHT22;4786;51.270;4.456;2022-09-24T09:12:33;14.90;99.90
9497;DHT22;4786;51.270;4.456;2022-09-24T09:15:08;14.90;99.90
9497;DHT22;4786;51.270;4.456;2022-09-24T09:18:00;14.90;99.90
9497;DHT22;4786;51.270;4.456;2022-09-24T09:23:09;14.90;99.90
9497;DHT22;4786;51.270;4.456;2022-09-24T09:25:41;14.90;99.90
9497;DHT22;4786;51.270;4.456;2022-09-24T09:28:14;14.90;99.90
9497;DHT22;4786;51.270;4.456;2022-09-24T09:33:22;15.00;99.90
9497;DHT22;4786;51.270;4.456;2022-09-24T09:36:09;15.00;99.90
9497;DHT22;4786;51.270;4.456;2022-09-24T09:39:04;15.10;99.90
9497;DHT22;4786;51.270;4.456;2022-09-24T09:44:23;15.10;99.90
9497;DHT22;4786;51.270;4.456;2022-09-24T09:46:54;15.00;99.90
9497;DHT22;4786;51.270;4.456;2022-09-24T09:49:22;15.10;99.90
9497;DHT22;4786;51.270;4.456;2022-09-24T09:51:55;15.20;99.90
9497;DHT22;4786;51.270;4.456;2022-09-24T09:54:35;15.10;99.90
9497;DHT22;4786;51.270;4.456;2022-09-24T09:57:01;15.20;99.90
9497;DHT22;4786;51.270;4.456;2022-09-24T09:59:28;15.10;99.90
9497;DHT22;4786;51.270;4.456;2022-09-24T10:01:55;15.10;99.90
9497;DHT22;4786;51.270;4.456;2022-09-24T10:06:50;15.20;99.90
9497;DHT22;4786;51.270;4.456;2022-09-24T10:09:17;15.20;99.90
9497;DHT22;4786;51.270;4.456;2022-09-24T10:11:47;15.20;99.90
9497;DHT22;4786;51.270;4.456;2022-09-24T10:14:15;15.20;99.90
9497;DHT22;4786;51.270;4.456;2022-09-24T10:16:44;15.20;99.90
9497;DHT22;4786;51.270;4.456;2022-09-24T10:19:19;15.30;99.90
9497;DHT22;4786;51.270;4.456;2022-09-24T10:21:47;15.20;99.90
9497;DHT22;4786;51.270;4.456;2022-09-24T10:24:19;15.20;99.90
9497;DHT22;4786;51.270;4.456;2022-09-24T10:26:46;15.30;99.90
9497;DHT22;4786;51.270;4.456;2022-09-24T10:32:03;15.30;99.90
9497;DHT22;4786;51.270;4.456;2022-09-24T10:34:30;15.30;99.90
9497;DHT22;4786;51.270;4.456;2022-09-24T10:37:10;15.40;99.90
9497;DHT22;4786;51.270;4.456;2022-09-24T10:39:37;15.40;99.90
9497;DHT22;4786;51.270;4.456;2022-09-24T10:42:03;15.40;99.90
9497;DHT22;4786;51.270;4.456;2022-09-24T10:44:35;15.40;99.90
9497;DHT22;4786;51.270;4.456;2022-09-24T11:09:16;15.60;99.90
9497;DHT22;4786;51.270;4.456;2022-09-24T11:15:04;15.70;99.90
9497;DHT22;4786;51.270;4.456;2022-09-24T11:17:39;15.80;99.90
9497;DHT22;4786;51.270;4.456;2022-09-24T11:20:37;15.80;99.90
9497;DHT22;4786;51.270;4.456;2022-09-24T11:37:05;16.00;99.90
9497;DHT22;4786;51.270;4.456;2022-09-24T11:43:05;16.00;99.90
9497;DHT22;4786;51.270;4.456;2022-09-24T11:52:23;16.10;99.90
9497;DHT22;4786;51.270;4.456;2022-09-24T11:54:54;16.20;99.90
9497;DHT22;4786;51.270;4.456;2022-09-24T11:57:26;16.20;99.90
9497;DHT22;4786;51.270;4.456;2022-09-24T12:07:37;16.40;99.90
9497;DHT22;4786;51.270;4.456;2022-09-24T12:13:23;16.50;99.90
9497;DHT22;4786;51.270;4.456;2022-09-24T12:16:02;16.40;99.90
9497;DHT22;4786;51.270;4.456;2022-09-24T12:18:37;16.50;99.90
9497;DHT22;4786;51.270;4.456;2022-09-24T12:21:12;16.50;99.90
9497;DHT22;4786;51.270;4.456;2022-09-24T12:23:42;16.60;99.90
9497;DHT22;4786;51.270;4.456;2022-09-24T12:26:09;16.40;99.90
9497;DHT22;4786;51.270;4.456;2022-09-24T12:28:55;16.40;99.90
9497;DHT22;4786;51.270;4.456;2022-09-24T12:34:50;16.40;99.90
9497;DHT22;4786;51.270;4.456;2022-09-24T12:37:26;16.40;99.90
9497;DHT22;4786;51.270;4.456;2022-09-24T12:42:31;16.40;99.90
9497;DHT22;4786;51.270;4.456;2022-09-24T12:45:00;16.40;99.90
9497;DHT22;4786;51.270;4.456;2022-09-24T12:47:29;16.40;99.90
9497;DHT22;4786;51.270;4.456;2022-09-24T12:50:00;16.40;99.90
9497;DHT22;4786;51.270;4.456;2022-09-24T12:52:31;16.40;99.90
9497;DHT22;4786;51.270;4.456;2022-09-24T12:55:00;16.30;99.90
9497;DHT22;4786;51.270;4.456;2022-09-24T12:57:33;16.20;99.90
9497;DHT22;4786;51.270;4.456;2022-09-24T13:00:03;16.20;99.90
9497;DHT22;4786;51.270;4.456;2022-09-24T13:02:43;16.20;99.90
9497;DHT22;4786;51.270;4.456;2022-09-24T13:05:25;16.10;99.90
9497;DHT22;4786;51.270;4.456;2022-09-24T13:08:22;16.10;99.90
9497;DHT22;4786;51.270;4.456;2022-09-24T13:13:28;16.00;99.90
9497;DHT22;4786;51.270;4.456;2022-09-24T13:16:04;15.90;99.90
9497;DHT22;4786;51.270;4.456;2022-09-24T13:18:33;16.00;99.90
9497;DHT22;4786;51.270;4.456;2022-09-24T13:21:01;16.00;99.90
9497;DHT22;4786;51.270;4.456;2022-09-24T13:23:41;16.00;99.90
9497;DHT22;4786;51.270;4.456;2022-09-24T13:26:11;16.00;99.90
9497;DHT22;4786;51.270;4.456;2022-09-24T13:36:48;16.00;99.90
9497;DHT22;4786;51.270;4.456;2022-09-24T13:39:34;16.00;99.90
9497;DHT22;4786;51.270;4.456;2022-09-24T13:42:14;16.00;99.90
9497;DHT22;4786;51.270;4.456;2022-09-24T13:44:43;16.00;99.90
9497;DHT22;4786;51.270;4.456;2022-09-24T13:49:43;15.90;99.90
9497;DHT22;4786;51.270;4.456;2022-09-24T13:52:37;15.80;99.90
9497;DHT22;4786;51.270;4.456;2022-09-24T13:55:38;15.70;99.90
9497;DHT22;4786;51.270;4.456;2022-09-24T14:00:52;15.60;99.90
9497;DHT22;4786;51.270;4.456;2022-09-24T14:03:25;15.50;99.90
9497;DHT22;4786;51.270;4.456;2022-09-24T14:05:52;15.50;99.90
9497;DHT22;4786;51.270;4.456;2022-09-24T14:08:20;15.50;99.90
9497;DHT22;4786;51.270;4.456;2022-09-24T14:10:47;15.50;99.90
9497;DHT22;4786;51.270;4.456;2022-09-24T14:13:22;15.50;99.90
9497;DHT22;4786;51.270;4.456;2022-09-24T14:18:24;15.60;99.90
9497;DHT22;4786;51.270;4.456;2022-09-24T14:20:58;15.60;99.90
9497;DHT22;4786;51.270;4.456;2022-09-24T14:23:32;15.50;99.90
9497;DHT22;4786;51.270;4.456;2022-09-24T14:26:00;15.50;99.90
9497;DHT22;4786;51.270;4.456;2022-09-24T14:28:28;15.40;99.90
9497;DHT22;4786;51.270;4.456;2022-09-24T14:30:57;15.40;99.90
9497;DHT22;4786;51.270;4.456;2022-09-24T14:33:30;15.30;99.90
9497;DHT22;4786;51.270;4.456;2022-09-24T14:35:58;15.20;99.90
9497;DHT22;4786;51.270;4.456;2022-09-24T14:38:30;15.10;99.90
9497;DHT22;4786;51.270;4.456;2022-09-24T14:41:21;15.00;99.90
9497;DHT22;4786;51.270;4.456;2022-09-24T14:43:59;14.90;99.90
9497;DHT22;4786;51.270;4.456;2022-09-24T14:46:26;14.90;99.90
9497;DHT22;4786;51.270;4.456;2022-09-24T14:49:18;14.90;99.90
9497;DHT22;4786;51.270;4.456;2022-09-24T14:52:03;14.90;99.90
9497;DHT22;4786;51.270;4.456;2022-09-24T14:54:35;14.90;99.90
9497;DHT22;4786;51.270;4.456;2022-09-24T14:57:10;14.90;99.90
9497;DHT22;4786;51.270;4.456;2022-09-24T14:59:37;14.90;99.90
9497;DHT22;4786;51.270;4.456;2022-09-24T15:04:46;14.90;99.90
9497;DHT22;4786;51.270;4.456;2022-09-24T15:07:21;14.90;99.90
9497;DHT22;4786;51.270;4.456;2022-09-24T15:10:05;14.90;99.90
9497;DHT22;4786;51.270;4.456;2022-09-24T15:12:35;14.80;99.90
9497;DHT22;4786;51.270;4.456;2022-09-24T15:15:06;14.80;99.90
9497;DHT22;4786;51.270;4.456;2022-09-24T15:17:50;14.60;99.90
9497;DHT22;4786;51.270;4.456;2022-09-24T15:20:16;14.60;99.90
9497;DHT22;4786;51.270;4.456;2022-09-24T15:22:42;14.60;99.90
9497;DHT22;4786;51.270;4.456;2022-09-24T15:25:08;14.60;99.90
9497;DHT22;4786;51.270;4.456;2022-09-24T15:27:40;14.60;99.90
9497;DHT22;4786;51.270;4.456;2022-09-24T15:30:11;14.60;99.90
9497;DHT22;4786;51.270;4.456;2022-09-24T15:32:37;14.70;99.90
9497;DHT22;4786;51.270;4.456;2022-09-24T15:35:04;14.70;99.90
9497;DHT22;4786;51.270;4.456;2022-09-24T15:37:36;14.70;99.90
9497;DHT22;4786;51.270;4.456;2022-09-24T15:40:22;14.70;99.90
9497;DHT22;4786;51.270;4.456;2022-09-24T15:42:50;14.70;99.90
9497;DHT22;4786;51.270;4.456;2022-09-24T15:45:21;14.60;99.90
9497;DHT22;4786;51.270;4.456;2022-09-24T15:47:49;14.70;99.90
9497;DHT22;4786;51.270;4.456;2022-09-24T15:50:15;14.70;99.90
9497;DHT22;4786;51.270;4.456;2022-09-24T15:52:57;14.70;99.90
9497;DHT22;4786;51.270;4.456;2022-09-24T15:55:24;14.60;99.90
9497;DHT22;4786;51.270;4.456;2022-09-24T15:57:50;14.60;99.90
9497;DHT22;4786;51.270;4.456;2022-09-24T16:00:19;14.50;99.90
9497;DHT22;4786;51.270;4.456;2022-09-24T16:02:54;14.50;99.90
9497;DHT22;4786;51.270;4.456;2022-09-24T16:05:20;14.60;99.90
9497;DHT22;4786;51.270;4.456;2022-09-24T16:07:45;14.60;99.90
9497;DHT22;4786;51.270;4.456;2022-09-24T16:10:12;14.60;99.90
9497;DHT22;4786;51.270;4.456;2022-09-24T16:12:38;14.60;99.90
9497;DHT22;4786;51.270;4.456;2022-09-24T16:15:05;14.60;99.90
9497;DHT22;4786;51.270;4.456;2022-09-24T16:17:31;14.60;99.90
9497;DHT22;4786;51.270;4.456;2022-09-24T16:19:57;14.60;99.90
9497;DHT22;4786;51.270;4.456;2022-09-24T16:22:23;14.60;99.90
9497;DHT22;4786;51.270;4.456;2022-09-24T16:24:49;14.60;99.90
9497;DHT22;4786;51.270;4.456;2022-09-24T16:27:15;14.50;99.90
9497;DHT22;4786;51.270;4.456;2022-09-24T16:29:40;14.60;99.90
9497;DHT22;4786;51.270;4.456;2022-09-24T16:32:06;14.70;99.90
9497;DHT22;4786;51.270;4.456;2022-09-24T16:34:32;14.60;99.90
9497;DHT22;4786;51.270;4.456;2022-09-24T16:36:58;14.50;99.90
9497;DHT22;4786;51.270;4.456;2022-09-24T16:39:24;14.50;99.90
9497;DHT22;4786;51.270;4.456;2022-09-24T16:41:51;14.40;99.90
9497;DHT22;4786;51.270;4.456;2022-09-24T16:44:17;14.40;99.90
9497;DHT22;4786;51.270;4.456;2022-09-24T16:46:44;14.40;99.90
9497;DHT22;4786;51.270;4.456;2022-09-24T16:49:10;14.30;99.90
9497;DHT22;4786;51.270;4.456;2022-09-24T16:51:36;14.30;99.90
9497;DHT22;4786;51.270;4.456;2022-09-24T16:54:02;14.40;99.90
9497;DHT22;4786;51.270;4.456;2022-09-24T16:56:30;14.40;99.90
9497;DHT22;4786;51.270;4.456;2022-09-24T16:58:56;14.40;99.90
9497;DHT22;4786;51.270;4.456;2022-09-24T17:01:22;14.50;99.90
9497;DHT22;4786;51.270;4.456;2022-09-24T17:03:56;14.50;99.90
9497;DHT22;4786;51.270;4.456;2022-09-24T17:06:29;14.50;99.90
9497;DHT22;4786;51.270;4.456;2022-09-24T17:08:55;14.40;99.90
9497;DHT22;4786;51.270;4.456;2022-09-24T17:11:39;14.30;99.90
9497;DHT22;4786;51.270;4.456;2022-09-24T17:14:07;14.40;99.90
9497;DHT22;4786;51.270;4.456;2022-09-24T17:16:33;14.40;99.90
9497;DHT22;4786;51.270;4.456;2022-09-24T17:18:59;14.50;99.90
9497;DHT22;4786;51.270;4.456;2022-09-24T17:21:26;14.50;99.90
9497;DHT22;4786;51.270;4.456;2022-09-24T17:23:51;14.60;99.90
9497;DHT22;4786;51.270;4.456;2022-09-24T17:26:19;14.50;99.90
9497;DHT22;4786;51.270;4.456;2022-09-24T17:28:47;14.60;99.90
9497;DHT22;4786;51.270;4.456;2022-09-24T17:31:16;14.60;99.90
9497;DHT22;4786;51.270;4.456;2022-09-24T17:33:43;14.60;99.90
9497;DHT22;4786;51.270;4.456;2022-09-24T17:36:10;14.50;99.90
9497;DHT22;4786;51.270;4.456;2022-09-24T17:38:37;14.50;99.90
9497;DHT22;4786;51.270;4.456;2022-09-24T17:41:06;14.50;99.90
9497;DHT22;4786;51.270;4.456;2022-09-24T17:43:33;14.50;99.90
9497;DHT22;4786;51.270;4.456;2022-09-24T17:46:01;14.50;99.90
9497;DHT22;4786;51.270;4.456;2022-09-24T17:48:28;14.60;99.90
9497;DHT22;4786;51.270;4.456;2022-09-24T17:50:59;14.60;99.90
9497;DHT22;4786;51.270;4.456;2022-09-24T17:53:29;14.60;99.90
9497;DHT22;4786;51.270;4.456;2022-09-24T17:55:56;14.60;99.90
9497;DHT22;4786;51.270;4.456;2022-09-24T17:58:22;14.60;99.90
9497;DHT22;4786;51.270;4.456;2022-09-24T18:00:49;14.60;99.90
9497;DHT22;4786;51.270;4.456;2022-09-24T18:03:16;14.60;99.90
9497;DHT22;4786;51.270;4.456;2022-09-24T18:05:42;14.60;99.90
9497;DHT22;4786;51.270;4.456;2022-09-24T18:08:08;14.50;99.90
9497;DHT22;4786;51.270;4.456;2022-09-24T18:10:35;14.50;99.90
9497;DHT22;4786;51.270;4.456;2022-09-24T18:13:01;14.50;99.90
9497;DHT22;4786;51.270;4.456;2022-09-24T18:15:28;14.60;99.90
9497;DHT22;4786;51.270;4.456;2022-09-24T18:17:55;14.60;99.90
9497;DHT22;4786;51.270;4.456;2022-09-24T18:20:22;14.50;99.90
9497;DHT22;4786;51.270;4.456;2022-09-24T18:22:48;14.50;99.90
9497;DHT22;4786;51.270;4.456;2022-09-24T18:25:13;14.50;99.90